JBU1334 KMCO-TJSJ
Flight info
| Callsign | JBU1334 |
|---|---|
| Flight time | N/A |
| Altitude | 37000 |
| Route | DDANY3 JIPOD DCT VENDS Y185 RENAH Y355 PLING RTE7 SAALR |
| Aircraft | A320/M-SDE3FGHIRWY/LB1 |
Departure
| Time | 2026-04-25 20:30 |
|---|---|
| Airport | Orlando International Airport (KMCO) |
Arrival
| Time | N/A |
|---|---|
| Airport | Luis Munoz Marin International Airport (TJSJ) |
| Time | Latitude | Longitude | Altitude | Speed | Heading |
|---|---|---|---|---|---|
| 2026-04-25 20:10 | 28.43452 | -81.31553 | 102 ft | 0 kts | 158° |
| 2026-04-25 20:20 | 28.43463 | -81.31558 | 102 ft | 4 kts | 155° |
| 2026-04-25 20:20 | 28.43487 | -81.31572 | 102 ft | 4 kts | 146° |
| 2026-04-25 20:21 | 28.43508 | -81.31591 | 102 ft | 4 kts | 137° |
| 2026-04-25 20:21 | 28.43527 | -81.31613 | 102 ft | 4 kts | 133° |
| 2026-04-25 20:21 | 28.43542 | -81.31630 | 99 ft | 4 kts | 143° |
| 2026-04-25 20:21 | 28.43565 | -81.31643 | 102 ft | 4 kts | 170° |
| 2026-04-25 20:22 | 28.43592 | -81.31644 | 101 ft | 4 kts | 191° |
| 2026-04-25 20:22 | 28.43606 | -81.31641 | 101 ft | 1 kts | 192° |
| 2026-04-25 20:24 | 28.43604 | -81.31641 | 102 ft | 1 kts | 192° |
| 2026-04-25 20:24 | 28.43589 | -81.31644 | 102 ft | 3 kts | 190° |
| 2026-04-25 20:24 | 28.43558 | -81.31651 | 102 ft | 6 kts | 189° |
| 2026-04-25 20:24 | 28.43516 | -81.31671 | 102 ft | 8 kts | 225° |
| 2026-04-25 20:25 | 28.43509 | -81.31734 | 103 ft | 9 kts | 271° |
| 2026-04-25 20:25 | 28.43502 | -81.31805 | 104 ft | 9 kts | 270° |
| 2026-04-25 20:25 | 28.43548 | -81.31844 | 105 ft | 9 kts | 355° |
| 2026-04-25 20:25 | 28.43617 | -81.31844 | 105 ft | 11 kts | 0° |
| 2026-04-25 20:26 | 28.43697 | -81.31846 | 105 ft | 13 kts | 359° |
| 2026-04-25 20:26 | 28.43789 | -81.31846 | 106 ft | 14 kts | 0° |
| 2026-04-25 20:26 | 28.43888 | -81.31847 | 108 ft | 14 kts | 359° |
| 2026-04-25 20:26 | 28.43985 | -81.31874 | 110 ft | 14 kts | 341° |
| 2026-04-25 20:27 | 28.44092 | -81.31900 | 109 ft | 17 kts | 357° |
| 2026-04-25 20:27 | 28.44223 | -81.31902 | 107 ft | 21 kts | 360° |
| 2026-04-25 20:27 | 28.44372 | -81.31903 | 107 ft | 22 kts | 359° |
| 2026-04-25 20:27 | 28.44522 | -81.31905 | 104 ft | 20 kts | 358° |
| 2026-04-25 20:28 | 28.44676 | -81.31906 | 101 ft | 23 kts | 359° |
| 2026-04-25 20:28 | 28.44783 | -81.31908 | 103 ft | 7 kts | 358° |
| 2026-04-25 20:28 | 28.44825 | -81.31937 | 103 ft | 8 kts | 297° |
| 2026-04-25 20:28 | 28.44825 | -81.32012 | 102 ft | 11 kts | 267° |
| 2026-04-25 20:29 | 28.44825 | -81.32118 | 100 ft | 15 kts | 268° |
| 2026-04-25 20:29 | 28.44817 | -81.32201 | 100 ft | 11 kts | 245° |
| 2026-04-25 20:29 | 28.44750 | -81.32229 | 102 ft | 11 kts | 178° |
| 2026-04-25 20:29 | 28.44650 | -81.32225 | 104 ft | 29 kts | 178° |
| 2026-04-25 20:30 | 28.44137 | -81.32222 | 111 ft | 115 kts | 180° |
| 2026-04-25 20:30 | 28.43109 | -81.32211 | 160 ft | 173 kts | 178° |
| 2026-04-25 20:30 | 28.41910 | -81.32198 | 1063 ft | 163 kts | 180° |
| 2026-04-25 20:30 | 28.40769 | -81.32167 | 1909 ft | 178 kts | 178° |
| 2026-04-25 20:31 | 28.39488 | -81.31998 | 2385 ft | 194 kts | 161° |
| 2026-04-25 20:31 | 28.38312 | -81.31086 | 2613 ft | 218 kts | 133° |
| 2026-04-25 20:31 | 28.37275 | -81.29754 | 2950 ft | 238 kts | 133° |
| 2026-04-25 20:31 | 28.36138 | -81.28337 | 3556 ft | 245 kts | 134° |
| 2026-04-25 20:32 | 28.34933 | -81.26858 | 4092 ft | 262 kts | 134° |
| 2026-04-25 20:32 | 28.33668 | -81.25314 | 4865 ft | 269 kts | 134° |
| 2026-04-25 20:32 | 28.32393 | -81.23761 | 5714 ft | 274 kts | 134° |
| 2026-04-25 20:32 | 28.31076 | -81.22158 | 6601 ft | 279 kts | 134° |
| 2026-04-25 20:33 | 28.29736 | -81.20525 | 7408 ft | 284 kts | 134° |
| 2026-04-25 20:33 | 28.28375 | -81.18868 | 8171 ft | 290 kts | 133° |